Aviation Digital Data Service (ADDS)

Output produced by METARs form (1158 UTC 25 July 2016)
found at http://aviationweather.gov/adds/metars/
 
KLAN 251140Z 2512/2612 25006KT P6SM BKN040 
     FM251400 30010KT P6SM SCT250 
     FM260000 29006KT P6SM SKC 
     FM260900 00000KT 4SM BR SKC